Time;durP1;ratioP1;P1;durP2;ratioP2;P2;SDS_P1;SDS_P2;PMS_P1;PMS_P2;Temp;Humidity;BMP_temperature;BMP_pressure;BME280_temperature;BME280_humidity;BME280_pressure;Samples;Min_cycle;Max_cycle;Signal;HPM_P1;HPM_P2
2023/07/03 00:01:01;;;;;;;21.25;7.05;;;;;;;;;;2515930;23;20068;-90
2023/07/03 00:02:33;;;;;;;25.30;8.40;;;;;;;;;;2534236;23;20006;-90
2023/07/03 00:04:00;;;;;;;19.63;7.25;;;;;;;;;;2520103;23;20079;-91
2023/07/03 00:05:23;;;;;;;16.80;7.80;;;;;;;;;;2520238;23;20010;-90
2023/07/03 00:06:45;;;;;;;18.27;7.72;;;;;;;;;;2517906;23;20015;-90
2023/07/03 00:08:07;;;;;;;26.48;7.80;;;;;;;;;;2530325;23;20018;-90
2023/07/03 00:09:30;;;;;;;21.38;7.45;;;;;;;;;;2520042;23;20132;-90
2023/07/03 00:10:58;;;;;;;32.88;10.73;;;;;;;;;;2516201;23;20019;-91
2023/07/03 00:12:19;;;;;;;25.55;8.20;;;;;;;;;;2516680;23;20041;-91
2023/07/03 00:13:41;;;;;;;19.77;7.32;;;;;;;;;;2517409;23;20014;-91
2023/07/03 00:15:02;;;;;;;22.35;8.05;;;;;;;;;;2516878;23;20413;-90
2023/07/03 00:16:26;;;;;;;22.58;7.53;;;;;;;;;;2515445;23;20010;-90
2023/07/03 00:17:47;;;;;;;25.33;9.10;;;;;;;;;;2517505;23;20290;-90
2023/07/03 00:19:13;;;;;;;28.13;9.68;;;;;;;;;;2520374;23;20018;-90
2023/07/03 00:20:34;;;;;;;31.75;10.70;;;;;;;;;;2515284;23;20010;-88
2023/07/03 00:22:00;;;;;;;24.58;9.27;;;;;;;;;;2515287;23;20006;-90
2023/07/03 00:23:24;;;;;;;19.70;7.88;;;;;;;;;;2516070;23;20034;-89
2023/07/03 00:24:45;;;;;;;28.67;9.25;;;;;;;;;;2516156;23;20348;-90
2023/07/03 00:26:06;;;;;;;24.77;9.80;;;;;;;;;;2515664;23;20014;-92
2023/07/03 00:27:27;;;;;;;20.40;7.82;;;;;;;;;;2516676;23;20006;-91
2023/07/03 00:28:48;;;;;;;26.08;9.75;;;;;;;;;;2515636;23;20015;-91
2023/07/03 00:30:10;;;;;;;27.70;8.88;;;;;;;;;;2514621;23;20397;-90
2023/07/03 00:31:31;;;;;;;24.05;8.13;;;;;;;;;;2516099;23;20425;-91
2023/07/03 00:32:53;;;;;;;21.33;8.32;;;;;;;;;;2515901;23;20021;-91
2023/07/03 00:34:14;;;;;;;20.10;7.93;;;;;;;;;;2514007;23;20014;-90
2023/07/03 00:37:26;;;;;;;31.45;9.52;;;;;;;;;;2533538;23;20014;-91
2023/07/03 00:38:47;;;;;;;16.83;7.85;;;;;;;;;;2520414;23;20020;-91
2023/07/03 00:40:10;;;;;;;23.00;9.20;;;;;;;;;;2513044;23;20017;-90
2023/07/03 00:41:32;;;;;;;19.58;8.10;;;;;;;;;;2513827;23;20014;-91
2023/07/03 00:42:53;;;;;;;25.67;8.90;;;;;;;;;;2514821;23;20340;-90
2023/07/03 00:44:15;;;;;;;17.65;7.40;;;;;;;;;;2515558;23;20014;-91
2023/07/03 00:45:46;;;;;;;25.60;9.38;;;;;;;;;;2516583;23;20010;-91
2023/07/03 00:47:18;;;;;;;15.25;7.22;;;;;;;;;;2519156;23;20464;-92
2023/07/03 00:48:40;;;;;;;19.17;8.45;;;;;;;;;;2518092;23;20037;-92
2023/07/03 00:50:04;;;;;;;;;;;;;;;;;;2519288;23;20065;-91
2023/07/03 00:51:38;;;;;;;;;;;;;;;;;;;;;
2023/07/03 00:53:04;;;;;;;28.35;9.77;;;;;;;;;;2530703;23;20021;-92
2023/07/03 00:54:25;;;;;;;29.27;9.57;;;;;;;;;;2518162;23;20015;-92
2023/07/03 00:55:46;;;;;;;27.53;9.43;;;;;;;;;;2515644;23;20013;-92
2023/07/03 00:57:10;;;;;;;21.48;7.43;;;;;;;;;;2514820;23;20042;-91
2023/07/03 00:58:43;;;;;;;23.02;8.23;;;;;;;;;;2517519;23;20010;-91
2023/07/03 01:00:10;;;;;;;29.92;9.18;;;;;;;;;;2517067;23;20091;-96
2023/07/03 01:01:43;;;;;;;26.25;8.07;;;;;;;;;;2500804;23;20057;-91
2023/07/03 01:03:25;;;;;;;43.75;13.38;;;;;;;;;;2512884;23;19995;-75
2023/07/03 01:04:46;;;;;;;22.35;9.13;;;;;;;;;;2529732;23;20017;-75
2023/07/03 01:06:10;;;;;;;27.08;9.55;;;;;;;;;;2516171;23;20011;-75
2023/07/03 01:07:32;;;;;;;28.60;8.95;;;;;;;;;;2513092;23;20010;-75
2023/07/03 01:08:56;;;;;;;18.02;7.65;;;;;;;;;;2525665;23;20316;-75
2023/07/03 01:10:24;;;;;;;24.52;8.90;;;;;;;;;;2529364;23;20010;-75
2023/07/03 01:11:46;;;;;;;22.00;8.52;;;;;;;;;;2515172;23;20143;-75
2023/07/03 01:13:10;;;;;;;21.25;8.25;;;;;;;;;;2515128;23;20025;-74
2023/07/03 01:14:33;;;;;;;26.42;9.55;;;;;;;;;;2512061;23;20014;-73
2023/07/03 01:15:55;;;;;;;30.50;9.32;;;;;;;;;;2523857;23;20471;-74
2023/07/03 01:17:16;;;;;;;;;;;;;;;;;;2529571;23;20006;-74
2023/07/03 01:18:37;;;;;;;31.88;9.65;;;;;;;;;;2527880;23;19905;-75
2023/07/03 01:19:59;;;;;;;29.40;9.52;;;;;;;;;;2529842;23;20101;-74
2023/07/03 01:21:26;;;;;;;25.60;8.75;;;;;;;;;;2527416;23;20030;-74
2023/07/03 01:22:53;;;;;;;25.55;9.07;;;;;;;;;;2518415;23;20037;-74
2023/07/03 01:24:17;;;;;;;22.15;9.52;;;;;;;;;;2526293;23;20018;-74
2023/07/03 01:25:40;;;;;;;27.15;9.55;;;;;;;;;;2517177;23;20463;-74
2023/07/03 01:27:03;;;;;;;27.25;8.40;;;;;;;;;;2526438;23;20014;-74
2023/07/03 01:28:25;;;;;;;16.42;7.65;;;;;;;;;;2531088;23;20351;-75
2023/07/03 01:29:47;;;;;;;24.83;8.68;;;;;;;;;;2529095;23;20021;-75
2023/07/03 01:31:08;;;;;;;22.83;8.30;;;;;;;;;;2519027;23;20033;-75
2023/07/03 01:32:31;;;;;;;19.30;7.18;;;;;;;;;;2527824;23;20010;-75
2023/07/03 01:33:53;;;;;;;21.90;8.05;;;;;;;;;;2520924;23;20106;-76
2023/07/03 01:35:15;;;;;;;20.50;7.60;;;;;;;;;;2525554;23;20435;-75
2023/07/03 01:36:37;;;;;;;22.63;8.15;;;;;;;;;;2531431;23;20446;-75
2023/07/03 01:38:00;;;;;;;32.22;9.18;;;;;;;;;;2530311;23;20443;-75
2023/07/03 01:39:21;;;;;;;20.63;8.20;;;;;;;;;;2530774;23;20033;-76
2023/07/03 01:40:42;;;;;;;25.20;9.60;;;;;;;;;;2531415;23;20288;-76
2023/07/03 01:42:04;;;;;;;22.67;8.95;;;;;;;;;;2518858;23;20021;-75
2023/07/03 01:43:26;;;;;;;23.08;8.30;;;;;;;;;;2526073;23;20415;-74
2023/07/03 01:44:47;;;;;;;20.25;8.10;;;;;;;;;;2529020;23;20014;-75
2023/07/03 01:46:08;;;;;;;19.85;8.25;;;;;;;;;;2531081;23;20395;-74
2023/07/03 01:47:29;;;;;;;23.27;7.90;;;;;;;;;;2518505;23;20121;-75
2023/07/03 01:48:50;;;;;;;27.55;8.13;;;;;;;;;;2526548;23;20018;-75
2023/07/03 01:50:13;;;;;;;25.90;8.10;;;;;;;;;;2530097;23;20014;-75
2023/07/03 01:51:41;;;;;;;24.58;7.55;;;;;;;;;;2529098;23;20463;-75
2023/07/03 01:53:04;;;;;;;23.77;8.63;;;;;;;;;;2517304;23;20359;-75
2023/07/03 01:54:27;;;;;;;22.38;8.05;;;;;;;;;;2527288;23;20065;-75
2023/07/03 01:55:56;;;;;;;32.22;9.30;;;;;;;;;;2530024;23;20010;-75
2023/07/03 01:57:27;;;;;;;21.40;7.93;;;;;;;;;;2518664;23;20006;-75
2023/07/03 01:58:50;;;;;;;27.58;9.55;;;;;;;;;;2528391;23;20023;-75
2023/07/03 02:00:14;;;;;;;23.35;7.70;;;;;;;;;;2519654;23;20014;-76
2023/07/03 02:01:50;;;;;;;28.02;8.60;;;;;;;;;;2527504;23;20013;-74
2023/07/03 02:03:23;;;;;;;28.50;9.65;;;;;;;;;;2531475;23;20359;-75
2023/07/03 02:04:50;;;;;;;21.17;6.97;;;;;;;;;;2520230;23;20462;-75
2023/07/03 02:06:17;;;;;;;27.73;7.50;;;;;;;;;;2529015;23;20014;-74
2023/07/03 02:07:38;;;;;;;28.38;8.50;;;;;;;;;;2530577;23;20447;-74
2023/07/03 02:09:00;;;;;;;24.17;7.53;;;;;;;;;;2517646;23;20019;-75
2023/07/03 02:10:21;;;;;;;30.40;9.27;;;;;;;;;;2527298;23;20391;-76
2023/07/03 02:11:44;;;;;;;33.35;9.15;;;;;;;;;;2527391;23;20077;-75
2023/07/03 02:13:04;;;;;;;27.08;9.15;;;;;;;;;;2529677;23;20018;-75
2023/07/03 02:14:25;;;;;;;23.88;8.10;;;;;;;;;;2532421;23;20021;-75
2023/07/03 02:15:46;;;;;;;31.23;9.95;;;;;;;;;;2529527;23;20036;-75
2023/07/03 02:17:07;;;;;;;27.02;9.20;;;;;;;;;;2529749;23;20085;-75
2023/07/03 02:18:28;;;;;;;29.05;9.65;;;;;;;;;;2529776;23;20010;-76
2023/07/03 02:19:49;;;;;;;29.60;9.90;;;;;;;;;;2519120;23;20384;-75
2023/07/03 02:21:10;;;;;;;29.38;8.75;;;;;;;;;;2525294;23;20010;-75
2023/07/03 02:22:31;;;;;;;19.92;8.18;;;;;;;;;;2530825;23;20009;-75
2023/07/03 02:23:52;;;;;;;27.45;8.95;;;;;;;;;;2529716;23;20451;-74
2023/07/03 02:25:13;;;;;;;23.85;8.38;;;;;;;;;;2528591;23;20104;-75
2023/07/03 02:26:34;;;;;;;28.52;9.98;;;;;;;;;;2531169;23;20014;-75
2023/07/03 02:27:56;;;;;;;20.38;7.88;;;;;;;;;;2531403;23;20009;-74
2023/07/03 02:29:17;;;;;;;15.82;7.82;;;;;;;;;;2529357;23;20392;-74
2023/07/03 02:30:38;;;;;;;27.00;8.95;;;;;;;;;;2515719;23;20065;-75
2023/07/03 02:31:59;;;;;;;26.27;8.65;;;;;;;;;;2514529;23;20093;-74
2023/07/03 02:33:19;;;;;;;33.08;10.27;;;;;;;;;;2518904;23;20016;-75
2023/07/03 02:34:40;;;;;;;34.50;10.32;;;;;;;;;;2525116;23;20428;-75
2023/07/03 02:36:02;;;;;;;27.70;7.80;;;;;;;;;;2530082;23;20061;-75
2023/07/03 02:37:23;;;;;;;27.95;10.20;;;;;;;;;;2518969;23;20073;-74
2023/07/03 02:38:44;;;;;;;25.15;9.23;;;;;;;;;;2510704;23;20408;-74
2023/07/03 02:40:08;;;;;;;31.88;10.10;;;;;;;;;;2523941;23;20045;-75
2023/07/03 02:41:29;;;;;;;36.13;10.15;;;;;;;;;;2527431;23;20309;-74
2023/07/03 02:42:50;;;;;;;28.02;9.60;;;;;;;;;;2529898;23;20010;-75
2023/07/03 02:44:11;;;;;;;26.83;9.68;;;;;;;;;;2531606;23;20010;-74
2023/07/03 02:45:39;;;;;;;23.85;9.13;;;;;;;;;;2531518;23;20092;-75
2023/07/03 02:47:00;;;;;;;27.42;9.07;;;;;;;;;;2532337;23;20014;-75
2023/07/03 02:48:21;;;;;;;21.92;7.70;;;;;;;;;;2516170;23;20081;-74
2023/07/03 02:49:42;;;;;;;34.35;9.45;;;;;;;;;;2513419;23;20393;-74
2023/07/03 02:51:03;;;;;;;28.15;8.98;;;;;;;;;;2524835;23;20052;-75
2023/07/03 02:52:24;;;;;;;24.33;7.78;;;;;;;;;;2517987;23;20444;-72
2023/07/03 02:53:45;;;;;;;25.25;8.80;;;;;;;;;;2527669;23;20036;-72
2023/07/03 02:55:06;;;;;;;30.90;9.00;;;;;;;;;;2519040;23;20013;-73
2023/07/03 02:56:28;;;;;;;19.02;8.57;;;;;;;;;;2525200;23;20013;-78
2023/07/03 02:57:49;;;;;;;20.75;8.40;;;;;;;;;;2517305;23;20142;-75
2023/07/03 02:59:11;;;;;;;30.67;9.10;;;;;;;;;;2515114;23;20014;-75
2023/07/03 03:00:32;;;;;;;20.48;8.50;;;;;;;;;;2517408;23;20007;-75
2023/07/03 03:01:53;;;;;;;25.30;8.93;;;;;;;;;;2518012;23;20360;-75
2023/07/03 03:03:14;;;;;;;21.50;7.93;;;;;;;;;;2526113;23;20367;-76
2023/07/03 03:04:35;;;;;;;25.88;9.50;;;;;;;;;;2518664;23;20036;-76
2023/07/03 03:05:56;;;;;;;29.77;10.07;;;;;;;;;;2526395;23;20021;-74
2023/07/03 03:07:17;;;;;;;31.83;8.93;;;;;;;;;;2529132;23;20018;-75
2023/07/03 03:08:38;;;;;;;26.48;8.50;;;;;;;;;;2530626;23;20020;-75
2023/07/03 03:09:59;;;;;;;29.60;9.52;;;;;;;;;;2529940;23;20017;-76
2023/07/03 03:11:20;;;;;;;27.13;9.60;;;;;;;;;;2529726;23;20025;-75
2023/07/03 03:12:40;;;;;;;28.02;8.77;;;;;;;;;;2530316;23;20041;-75
2023/07/03 03:14:02;;;;;;;32.50;10.73;;;;;;;;;;2529310;23;20028;-76
2023/07/03 03:15:23;;;;;;;30.90;9.30;;;;;;;;;;2527743;23;20021;-75
2023/07/03 03:16:43;;;;;;;36.88;9.98;;;;;;;;;;2515289;23;20382;-75
2023/07/03 03:18:04;;;;;;;22.58;8.55;;;;;;;;;;2514250;23;20010;-75
2023/07/03 03:19:25;;;;;;;28.77;9.43;;;;;;;;;;2525178;23;20014;-75
2023/07/03 03:20:46;;;;;;;31.23;9.35;;;;;;;;;;2518474;23;20129;-75
2023/07/03 03:22:07;;;;;;;31.48;9.80;;;;;;;;;;2524373;23;20017;-76
2023/07/03 03:23:28;;;;;;;28.13;8.65;;;;;;;;;;2531116;23;20006;-75
2023/07/03 03:24:49;;;;;;;32.10;9.68;;;;;;;;;;2517685;23;20388;-74
2023/07/03 03:26:10;;;;;;;30.85;9.57;;;;;;;;;;2514924;23;20010;-73
2023/07/03 03:27:31;;;;;;;32.92;9.75;;;;;;;;;;2514216;23;20015;-74
2023/07/03 03:28:52;;;;;;;25.15;9.13;;;;;;;;;;2514994;23;20428;-74
2023/07/03 03:30:13;;;;;;;29.85;10.35;;;;;;;;;;2525589;23;20014;-74
2023/07/03 03:31:34;;;;;;;27.63;9.52;;;;;;;;;;2518293;23;20057;-74
2023/07/03 03:32:54;;;;;;;28.77;9.50;;;;;;;;;;2514962;23;20021;-73
2023/07/03 03:34:15;;;;;;;27.88;9.95;;;;;;;;;;2524691;23;20437;-74
2023/07/03 03:35:36;;;;;;;32.53;10.25;;;;;;;;;;2515114;23;20022;-73
2023/07/03 03:36:57;;;;;;;37.15;10.73;;;;;;;;;;2511147;23;20439;-74
2023/07/03 03:38:18;;;;;;;19.15;7.65;;;;;;;;;;2526807;23;20344;-73
2023/07/03 03:39:39;;;;;;;30.30;9.55;;;;;;;;;;2527693;23;20021;-73
2023/07/03 03:41:01;;;;;;;31.20;10.30;;;;;;;;;;2529351;23;20077;-73
2023/07/03 03:42:22;;;;;;;26.77;10.80;;;;;;;;;;2527213;23;20015;-73
2023/07/03 03:43:46;;;;;;;32.50;9.05;;;;;;;;;;2518330;23;20042;-74
2023/07/03 03:45:07;;;;;;;30.88;9.13;;;;;;;;;;2525422;23;20354;-74
2023/07/03 03:46:28;;;;;;;33.38;10.25;;;;;;;;;;2516321;23;20400;-75
2023/07/03 03:47:51;;;;;;;34.67;11.75;;;;;;;;;;2525140;23;20018;-73
2023/07/03 03:49:11;;;;;;;33.83;11.32;;;;;;;;;;2528453;23;20093;-74
2023/07/03 03:50:32;;;;;;;32.20;9.18;;;;;;;;;;2516887;23;20324;-74
2023/07/03 03:51:53;;;;;;;25.10;8.65;;;;;;;;;;2525220;23;20025;-74
2023/07/03 03:53:14;;;;;;;29.45;11.10;;;;;;;;;;2515797;23;20018;-74
2023/07/03 03:54:35;;;;;;;35.15;10.25;;;;;;;;;;2525124;23;20009;-74
2023/07/03 03:55:56;;;;;;;35.88;10.75;;;;;;;;;;2527739;23;20014;-74
2023/07/03 03:57:17;;;;;;;30.58;10.07;;;;;;;;;;2530358;23;20006;-74
2023/07/03 03:58:38;;;;;;;29.58;8.38;;;;;;;;;;2530178;23;20010;-74
2023/07/03 03:59:59;;;;;;;36.88;10.60;;;;;;;;;;2517473;23;20010;-74
2023/07/03 04:01:19;;;;;;;28.55;8.63;;;;;;;;;;2525588;23;20006;-74
2023/07/03 04:02:40;;;;;;;35.50;10.65;;;;;;;;;;2516570;23;20010;-75
2023/07/03 04:04:01;;;;;;;30.65;8.18;;;;;;;;;;2526808;23;20168;-74
2023/07/03 04:05:22;;;;;;;36.95;10.63;;;;;;;;;;2538569;23;20013;-74
2023/07/03 04:06:43;;;;;;;26.27;8.32;;;;;;;;;;2530992;23;20021;-73
2023/07/03 04:08:04;;;;;;;30.45;8.70;;;;;;;;;;2527366;23;20013;-73
2023/07/03 04:09:25;;;;;;;29.55;9.23;;;;;;;;;;2539167;23;20093;-74
2023/07/03 04:10:46;;;;;;;32.70;10.05;;;;;;;;;;2541871;23;20049;-74
2023/07/03 04:12:07;;;;;;;26.85;8.88;;;;;;;;;;2542297;23;20018;-74
2023/07/03 04:13:28;;;;;;;35.10;10.30;;;;;;;;;;2542842;23;20049;-75
2023/07/03 04:14:49;;;;;;;25.73;9.25;;;;;;;;;;2541651;23;20021;-74
2023/07/03 04:16:09;;;;;;;26.00;9.13;;;;;;;;;;2543482;23;20345;-74
2023/07/03 04:17:30;;;;;;;35.90;10.18;;;;;;;;;;2542748;23;20408;-74
2023/07/03 04:18:51;;;;;;;33.42;9.43;;;;;;;;;;2542899;23;20013;-74
2023/07/03 04:20:15;;;;;;;26.65;9.38;;;;;;;;;;2542759;23;20056;-74
2023/07/03 04:21:36;;;;;;;33.05;9.95;;;;;;;;;;2527672;23;20120;-75
2023/07/03 04:22:57;;;;;;;42.08;11.18;;;;;;;;;;2523093;23;20478;-71
2023/07/03 04:24:18;;;;;;;35.63;10.52;;;;;;;;;;2534768;23;20006;-71
2023/07/03 04:25:39;;;;;;;29.20;9.38;;;;;;;;;;2541116;23;20350;-71
2023/07/03 04:27:00;;;;;;;37.20;11.20;;;;;;;;;;2540406;23;20010;-71
2023/07/03 04:28:22;;;;;;;47.97;12.50;;;;;;;;;;2529358;23;20054;-71
2023/07/03 04:29:43;;;;;;;;;;;;;;;;;;2537740;23;20017;-71
2023/07/03 04:31:04;;;;;;;25.50;9.38;;;;;;;;;;2540303;23;19900;-71
2023/07/03 04:32:25;;;;;;;51.10;12.63;;;;;;;;;;2527460;23;20006;-71
2023/07/03 04:33:46;;;;;;;29.10;8.50;;;;;;;;;;2525104;23;20461;-71
2023/07/03 04:35:07;;;;;;;26.88;9.13;;;;;;;;;;2536730;23;20010;-71
2023/07/03 04:36:28;;;;;;;26.95;8.57;;;;;;;;;;2542119;23;20412;-71
2023/07/03 04:37:49;;;;;;;38.22;11.85;;;;;;;;;;2529160;23;20006;-71
2023/07/03 04:39:10;;;;;;;37.22;11.15;;;;;;;;;;2537026;23;20010;-72
2023/07/03 04:40:31;;;;;;;28.13;9.38;;;;;;;;;;2540420;23;20028;-71
2023/07/03 04:41:52;;;;;;;37.85;11.30;;;;;;;;;;2540458;23;20014;-71
2023/07/03 04:43:15;;;;;;;27.67;10.95;;;;;;;;;;2541185;23;20017;-71
2023/07/03 04:44:36;;;;;;;29.58;8.85;;;;;;;;;;2541757;23;20108;-71
2023/07/03 04:46:02;;;;;;;28.58;10.20;;;;;;;;;;2528680;23;20085;-71
2023/07/03 04:47:23;;;;;;;26.58;8.93;;;;;;;;;;2526526;23;20010;-71
2023/07/03 04:48:45;;;;;;;30.10;9.55;;;;;;;;;;2536852;23;20017;-71
2023/07/03 04:50:08;;;;;;;33.58;10.45;;;;;;;;;;2542476;23;20167;-72
2023/07/03 04:51:30;;;;;;;32.65;10.85;;;;;;;;;;2527640;23;20366;-72
2023/07/03 04:52:52;;;;;;;50.40;14.85;;;;;;;;;;2533083;23;20048;-70
2023/07/03 04:54:13;;;;;;;33.33;11.18;;;;;;;;;;2538640;23;20013;-71
2023/07/03 04:55:35;;;;;;;31.67;11.60;;;;;;;;;;2529438;23;20497;-71
2023/07/03 04:56:56;;;;;;;;;;;;;;;;;;2539443;23;20014;-71
2023/07/03 04:58:16;;;;;;;32.45;9.30;;;;;;;;;;2543156;23;19905;-70
2023/07/03 04:59:38;;;;;;;33.88;9.93;;;;;;;;;;2541985;23;20403;-71
2023/07/03 05:00:58;;;;;;;34.63;10.02;;;;;;;;;;2544231;23;20010;-71
2023/07/03 05:02:20;;;;;;;20.58;9.70;;;;;;;;;;2543099;23;20025;-71
2023/07/03 05:03:41;;;;;;;28.27;9.45;;;;;;;;;;2530104;23;20447;-71
2023/07/03 05:05:02;;;;;;;31.27;8.95;;;;;;;;;;2537771;23;20084;-71
2023/07/03 05:06:24;;;;;;;25.58;8.30;;;;;;;;;;2543560;23;20088;-71
2023/07/03 05:07:45;;;;;;;27.03;9.03;;;;;;;;;;2544344;23;20399;-72
2023/07/03 05:09:08;;;;;;;26.88;8.95;;;;;;;;;;2532509;23;20021;-71
2023/07/03 05:10:29;;;;;;;36.58;9.25;;;;;;;;;;2539397;23;20010;-72
2023/07/03 05:11:51;;;;;;;23.45;10.00;;;;;;;;;;2532424;23;20014;-72
2023/07/03 05:13:12;;;;;;;28.23;8.55;;;;;;;;;;2540911;23;20017;-72
2023/07/03 05:14:35;;;;;;;31.85;9.10;;;;;;;;;;2541981;23;20014;-71
2023/07/03 05:15:55;;;;;;;41.13;11.45;;;;;;;;;;2542051;23;20311;-71
2023/07/03 05:17:16;;;;;;;29.20;9.00;;;;;;;;;;2544121;23;20010;-71
2023/07/03 05:18:37;;;;;;;39.80;9.27;;;;;;;;;;2532145;23;20022;-73
2023/07/03 05:19:58;;;;;;;27.35;9.10;;;;;;;;;;2538999;23;20009;-74
2023/07/03 05:21:19;;;;;;;33.65;10.05;;;;;;;;;;2541840;23;20009;-74
2023/07/03 05:22:41;;;;;;;26.48;8.80;;;;;;;;;;2531438;23;20076;-73
2023/07/03 05:24:03;;;;;;;31.70;10.63;;;;;;;;;;2539173;23;20005;-73
2023/07/03 05:25:23;;;;;;;30.77;10.82;;;;;;;;;;2543224;23;20013;-73
2023/07/03 05:26:45;;;;;;;29.52;10.77;;;;;;;;;;2529338;23;20292;-73
2023/07/03 05:28:06;;;;;;;22.23;8.50;;;;;;;;;;2541136;23;20010;-73
2023/07/03 05:29:27;;;;;;;31.17;10.15;;;;;;;;;;2541873;23;20399;-73
2023/07/03 05:30:52;;;;;;;32.13;9.57;;;;;;;;;;2543461;23;20347;-73
2023/07/03 05:32:13;;;;;;;34.83;10.50;;;;;;;;;;2541812;23;20356;-73
2023/07/03 05:33:34;;;;;;;26.02;9.32;;;;;;;;;;2543122;23;20111;-73
2023/07/03 05:34:55;;;;;;;25.80;9.75;;;;;;;;;;2530223;23;20064;-73
2023/07/03 05:36:16;;;;;;;28.08;9.48;;;;;;;;;;2540721;23;20296;-73
2023/07/03 05:37:37;;;;;;;33.45;10.20;;;;;;;;;;2531350;23;20017;-73
2023/07/03 05:38:58;;;;;;;28.75;8.90;;;;;;;;;;2526675;23;20300;-73
2023/07/03 05:40:19;;;;;;;30.52;10.57;;;;;;;;;;2538660;23;20002;-73
2023/07/03 05:41:40;;;;;;;36.08;10.48;;;;;;;;;;2542808;23;20014;-73
2023/07/03 05:43:01;;;;;;;23.38;9.65;;;;;;;;;;2543187;23;20009;-73
2023/07/03 05:44:22;;;;;;;26.58;9.38;;;;;;;;;;2542042;23;20016;-74
2023/07/03 05:45:43;;;;;;;22.58;9.30;;;;;;;;;;2542596;23;20013;-73
2023/07/03 05:47:04;;;;;;;25.65;9.05;;;;;;;;;;2543573;23;20010;-73
2023/07/03 05:48:25;;;;;;;31.95;9.52;;;;;;;;;;2529273;23;20470;-73
2023/07/03 05:49:48;;;;;;;35.83;10.20;;;;;;;;;;2526686;23;20037;-73
2023/07/03 05:51:09;;;;;;;35.30;8.65;;;;;;;;;;2538557;23;20475;-73
2023/07/03 05:52:30;;;;;;;27.20;9.02;;;;;;;;;;2531532;23;20026;-73
2023/07/03 05:53:51;;;;;;;35.17;11.00;;;;;;;;;;2526373;23;20010;-73
2023/07/03 05:55:12;;;;;;;30.33;10.02;;;;;;;;;;2539122;23;20016;-73
2023/07/03 05:56:32;;;;;;;31.42;9.65;;;;;;;;;;2530477;23;20010;-73
2023/07/03 05:57:53;;;;;;;24.85;9.68;;;;;;;;;;2527428;23;20010;-73
2023/07/03 05:59:14;;;;;;;34.10;10.02;;;;;;;;;;2538692;23;20440;-73
2023/07/03 06:00:36;;;;;;;30.80;9.65;;;;;;;;;;2531555;23;20010;-73
2023/07/03 06:01:57;;;;;;;;;;;;;;;;;;2527284;23;20014;-73
2023/07/03 06:03:18;;;;;;;38.78;10.02;;;;;;;;;;2532935;23;20247;-73
2023/07/03 06:04:40;;;;;;;33.17;9.27;;;;;;;;;;2519660;23;20393;-73
2023/07/03 06:06:03;;;;;;;29.88;8.65;;;;;;;;;;2514829;23;20033;-73
2023/07/03 06:07:24;;;;;;;30.85;8.52;;;;;;;;;;2529669;23;20033;-72
2023/07/03 06:08:45;;;;;;;32.35;10.13;;;;;;;;;;2530943;23;20032;-73
2023/07/03 06:10:07;;;;;;;32.13;10.45;;;;;;;;;;2519937;23;20010;-73
2023/07/03 06:11:27;;;;;;;29.92;8.55;;;;;;;;;;2514588;23;20011;-73
2023/07/03 06:12:48;;;;;;;37.25;9.93;;;;;;;;;;2514513;23;20090;-73
2023/07/03 06:14:15;;;;;;;36.72;10.38;;;;;;;;;;2515258;23;20010;-74
2023/07/03 06:15:36;;;;;;;26.15;9.77;;;;;;;;;;2514316;23;20298;-73
2023/07/03 06:16:58;;;;;;;30.00;9.98;;;;;;;;;;2527076;23;20025;-74
2023/07/03 06:18:19;;;;;;;29.92;8.98;;;;;;;;;;2531818;23;20010;-74
2023/07/03 06:19:40;;;;;;;30.48;9.45;;;;;;;;;;2532328;23;20009;-74
2023/07/03 06:21:02;;;;;;;25.48;8.80;;;;;;;;;;2519636;23;20037;-74
2023/07/03 06:22:23;;;;;;;23.27;8.45;;;;;;;;;;2528157;23;20093;-74
2023/07/03 06:23:44;;;;;;;23.55;8.63;;;;;;;;;;2520173;23;20017;-73
2023/07/03 06:25:06;;;;;;;29.13;9.60;;;;;;;;;;2527448;23;20021;-74
2023/07/03 06:26:30;;;;;;;26.50;8.50;;;;;;;;;;2518951;23;20328;-74
2023/07/03 06:27:51;;;;;;;32.33;9.70;;;;;;;;;;2529910;23;20064;-73
2023/07/03 06:29:12;;;;;;;30.15;9.60;;;;;;;;;;2519790;23;20352;-73
2023/07/03 06:30:33;;;;;;;28.63;8.70;;;;;;;;;;2529095;23;20014;-73
2023/07/03 06:31:54;;;;;;;25.83;9.38;;;;;;;;;;2531162;23;20014;-74
2023/07/03 06:33:15;;;;;;;33.33;9.80;;;;;;;;;;2518845;23;20022;-74
2023/07/03 06:34:36;;;;;;;27.50;9.15;;;;;;;;;;2517761;23;20393;-74
2023/07/03 06:35:57;;;;;;;28.33;9.82;;;;;;;;;;2528881;23;20014;-74
2023/07/03 06:37:17;;;;;;;28.33;9.02;;;;;;;;;;2530697;23;20470;-74
2023/07/03 06:38:38;;;;;;;24.10;8.50;;;;;;;;;;2533215;23;20010;-74
2023/07/03 06:39:59;;;;;;;29.52;10.38;;;;;;;;;;2532969;23;20090;-74
2023/07/03 06:41:20;;;;;;;29.52;10.52;;;;;;;;;;2518469;23;20010;-74
2023/07/03 06:42:41;;;;;;;23.45;9.38;;;;;;;;;;2514156;23;20026;-73
2023/07/03 06:44:03;;;;;;;35.05;11.02;;;;;;;;;;2515046;23;20010;-74
2023/07/03 06:45:24;;;;;;;27.77;8.95;;;;;;;;;;2527915;23;20036;-73
2023/07/03 06:46:45;;;;;;;30.45;9.50;;;;;;;;;;2519455;23;20065;-74
2023/07/03 06:48:06;;;;;;;29.35;9.13;;;;;;;;;;2526760;23;20017;-73
2023/07/03 06:49:29;;;;;;;32.58;9.43;;;;;;;;;;2532257;23;20014;-73
2023/07/03 06:50:59;;;;;;;28.50;10.60;;;;;;;;;;2519040;23;20011;-74
2023/07/03 06:52:20;;;;;;;38.80;10.63;;;;;;;;;;2512929;23;20037;-74
2023/07/03 06:53:41;;;;;;;30.55;10.15;;;;;;;;;;2528709;23;20065;-76
2023/07/03 06:55:02;;;;;;;29.58;9.32;;;;;;;;;;2519908;23;20017;-76
2023/07/03 06:56:24;;;;;;;28.20;8.45;;;;;;;;;;2527191;23;20384;-75
2023/07/03 06:57:44;;;;;;;25.45;7.88;;;;;;;;;;2519911;23;20145;-75
2023/07/03 06:59:05;;;;;;;29.83;8.82;;;;;;;;;;2513741;23;20006;-75
2023/07/03 07:00:27;;;;;;;28.25;9.88;;;;;;;;;;2527820;23;20284;-76
2023/07/03 07:01:47;;;;;;;29.77;9.45;;;;;;;;;;2531466;23;20328;-76
2023/07/03 07:03:08;;;;;;;37.60;10.32;;;;;;;;;;2518365;23;20078;-75
2023/07/03 07:04:29;;;;;;;30.00;9.07;;;;;;;;;;2511422;23;20007;-76
2023/07/03 07:05:53;;;;;;;29.67;9.57;;;;;;;;;;2512877;23;20025;-75
2023/07/03 07:07:13;;;;;;;30.40;9.23;;;;;;;;;;2515604;23;20018;-75
2023/07/03 07:08:34;;;;;;;28.23;9.50;;;;;;;;;;2515887;23;20014;-75
2023/07/03 07:09:55;;;;;;;27.85;8.68;;;;;;;;;;2517727;23;20018;-76
2023/07/03 07:11:18;;;;;;;25.10;8.57;;;;;;;;;;2514880;23;20010;-76
2023/07/03 07:12:38;;;;;;;32.55;8.85;;;;;;;;;;2512324;23;20022;-75
2023/07/03 07:14:00;;;;;;;30.10;9.10;;;;;;;;;;2526486;23;20010;-76
2023/07/03 07:15:21;;;;;;;22.38;8.50;;;;;;;;;;2532681;23;20010;-75
2023/07/03 07:16:42;;;;;;;23.75;8.57;;;;;;;;;;2518715;23;20010;-75
2023/07/03 07:18:05;;;;;;;34.27;9.07;;;;;;;;;;2526646;23;20312;-74
2023/07/03 07:19:25;;;;;;;;;;;;;;;;;;2519483;23;20389;-75
2023/07/03 07:20:46;;;;;;;22.50;7.95;;;;;;;;;;2518436;23;19901;-75
2023/07/03 07:22:07;;;;;;;27.73;8.68;;;;;;;;;;2526880;23;20436;-75
2023/07/03 07:23:28;;;;;;;17.92;8.38;;;;;;;;;;2519157;23;20070;-75
2023/07/03 07:24:49;;;;;;;29.40;9.25;;;;;;;;;;2527046;23;20006;-75
2023/07/03 07:26:10;;;;;;;27.75;7.82;;;;;;;;;;2530922;23;20022;-75
2023/07/03 07:27:31;;;;;;;19.35;8.40;;;;;;;;;;2532867;23;20013;-75
2023/07/03 07:28:51;;;;;;;25.13;9.02;;;;;;;;;;2533107;23;20021;-75
2023/07/03 07:30:12;;;;;;;19.40;8.02;;;;;;;;;;2533505;23;20009;-75
2023/07/03 07:31:37;;;;;;;23.33;8.32;;;;;;;;;;2533080;23;20396;-75
2023/07/03 07:32:57;;;;;;;20.80;7.60;;;;;;;;;;2531618;23;20022;-75
2023/07/03 07:34:18;;;;;;;21.13;8.10;;;;;;;;;;2532561;23;20025;-75
2023/07/03 07:35:39;;;;;;;24.58;8.82;;;;;;;;;;2532023;23;20037;-75
2023/07/03 07:37:00;;;;;;;29.75;8.57;;;;;;;;;;2533103;23;20458;-75
2023/07/03 07:38:21;;;;;;;22.83;8.23;;;;;;;;;;2519956;23;20010;-75
2023/07/03 07:39:42;;;;;;;24.90;8.73;;;;;;;;;;2528515;23;20036;-74
2023/07/03 07:41:03;;;;;;;25.40;7.55;;;;;;;;;;2533144;23;20010;-74
2023/07/03 07:42:24;;;;;;;23.10;8.50;;;;;;;;;;2529585;23;20006;-74
2023/07/03 07:43:46;;;;;;;24.13;8.13;;;;;;;;;;2532413;23;20434;-74
2023/07/03 07:45:07;;;;;;;22.65;8.02;;;;;;;;;;2531243;23;20010;-74
2023/07/03 07:46:29;;;;;;;29.43;9.47;;;;;;;;;;2529499;23;20045;-74
2023/07/03 07:47:51;;;;;;;28.60;9.07;;;;;;;;;;2518772;23;20386;-74
2023/07/03 07:49:11;;;;;;;27.92;8.50;;;;;;;;;;2512670;23;20010;-74
2023/07/03 07:50:36;;;;;;;32.55;9.30;;;;;;;;;;2526536;23;20021;-74
2023/07/03 07:51:57;;;;;;;30.48;8.48;;;;;;;;;;2531842;23;20017;-75
2023/07/03 07:53:18;;;;;;;25.40;8.27;;;;;;;;;;2519812;23;20018;-74
2023/07/03 07:54:39;;;;;;;23.45;9.48;;;;;;;;;;2528040;23;20010;-74
2023/07/03 07:56:00;;;;;;;27.10;9.45;;;;;;;;;;2519342;23;20011;-74
2023/07/03 07:57:20;;;;;;;27.10;7.93;;;;;;;;;;2528576;23;20010;-74
2023/07/03 07:58:41;;;;;;;22.60;8.43;;;;;;;;;;2519896;23;20011;-75
2023/07/03 08:00:03;;;;;;;22.48;8.32;;;;;;;;;;2516478;23;20007;-74
2023/07/03 08:01:24;;;;;;;27.55;9.20;;;;;;;;;;2526846;23;20408;-74
2023/07/03 08:02:45;;;;;;;26.98;9.13;;;;;;;;;;2530475;23;20021;-74
2023/07/03 08:04:06;;;;;;;23.73;9.25;;;;;;;;;;2545288;23;20021;-75
2023/07/03 08:05:27;;;;;;;20.08;7.55;;;;;;;;;;2542108;23;20017;-75
2023/07/03 08:06:47;;;;;;;23.88;8.23;;;;;;;;;;2543063;23;20081;-75